sensor_id;sensor_type;location;lat;lon;timestamp;temperature;humidity
58102;HTU21D;52034;51.926;6.320;2024-02-14T00:00:27;7.85;89.90
58102;HTU21D;52034;51.926;6.320;2024-02-14T00:01:29;7.82;89.65
58102;HTU21D;52034;51.926;6.320;2024-02-14T00:02:31;7.81;90.38
58102;HTU21D;52034;51.926;6.320;2024-02-14T00:03:33;7.78;90.21
58102;HTU21D;52034;51.926;6.320;2024-02-14T00:04:34;7.82;90.40
58102;HTU21D;52034;51.926;6.320;2024-02-14T00:05:36;7.86;89.77
58102;HTU21D;52034;51.926;6.320;2024-02-14T00:06:37;7.87;89.86
58102;HTU21D;52034;51.926;6.320;2024-02-14T00:07:40;7.82;89.89
58102;HTU21D;52034;51.926;6.320;2024-02-14T00:08:41;7.87;90.24
58102;HTU21D;52034;51.926;6.320;2024-02-14T00:09:43;7.87;90.12
58102;HTU21D;52034;51.926;6.320;2024-02-14T00:10:45;7.89;89.53
58102;HTU21D;52034;51.926;6.320;2024-02-14T00:11:46;7.92;89.67
58102;HTU21D;52034;51.926;6.320;2024-02-14T00:12:48;7.90;89.73
58102;HTU21D;52034;51.926;6.320;2024-02-14T00:13:50;7.84;90.23
58102;HTU21D;52034;51.926;6.320;2024-02-14T00:14:51;7.87;90.11
58102;HTU21D;52034;51.926;6.320;2024-02-14T00:15:53;7.86;89.67
58102;HTU21D;52034;51.926;6.320;2024-02-14T00:16:55;7.88;89.85
58102;HTU21D;52034;51.926;6.320;2024-02-14T00:17:57;7.86;89.95
58102;HTU21D;52034;51.926;6.320;2024-02-14T00:18:58;7.88;89.57
58102;HTU21D;52034;51.926;6.320;2024-02-14T00:20:03;7.90;89.73
58102;HTU21D;52034;51.926;6.320;2024-02-14T00:21:05;7.91;89.53
58102;HTU21D;52034;51.926;6.320;2024-02-14T00:22:07;7.90;89.52
58102;HTU21D;52034;51.926;6.320;2024-02-14T00:23:08;7.93;89.63
58102;HTU21D;52034;51.926;6.320;2024-02-14T00:24:10;7.94;89.31
58102;HTU21D;52034;51.926;6.320;2024-02-14T00:25:13;7.94;89.74
58102;HTU21D;52034;51.926;6.320;2024-02-14T00:26:18;7.98;89.53
58102;HTU21D;52034;51.926;6.320;2024-02-14T00:27:19;7.98;88.99
58102;HTU21D;52034;51.926;6.320;2024-02-14T00:28:21;7.96;89.75
58102;HTU21D;52034;51.926;6.320;2024-02-14T00:29:25;7.97;89.73
58102;HTU21D;52034;51.926;6.320;2024-02-14T00:30:26;7.94;90.00
58102;HTU21D;52034;51.926;6.320;2024-02-14T00:31:31;7.92;90.50
58102;HTU21D;52034;51.926;6.320;2024-02-14T00:32:32;7.97;90.05
58102;HTU21D;52034;51.926;6.320;2024-02-14T00:33:35;7.94;90.51
58102;HTU21D;52034;51.926;6.320;2024-02-14T00:34:37;7.97;90.47
58102;HTU21D;52034;51.926;6.320;2024-02-14T00:35:38;7.94;90.90
58102;HTU21D;52034;51.926;6.320;2024-02-14T00:36:40;7.91;91.10
58102;HTU21D;52034;51.926;6.320;2024-02-14T00:37:41;7.94;90.31
58102;HTU21D;52034;51.926;6.320;2024-02-14T00:38:43;7.92;90.60
58102;HTU21D;52034;51.926;6.320;2024-02-14T00:39:45;7.94;90.90
58102;HTU21D;52034;51.926;6.320;2024-02-14T00:40:46;7.94;90.63
58102;HTU21D;52034;51.926;6.320;2024-02-14T00:41:48;7.94;90.65
58102;HTU21D;52034;51.926;6.320;2024-02-14T00:42:50;7.97;90.14
58102;HTU21D;52034;51.926;6.320;2024-02-14T00:43:51;8.02;90.26
58102;HTU21D;52034;51.926;6.320;2024-02-14T00:44:53;7.98;90.38
58102;HTU21D;52034;51.926;6.320;2024-02-14T00:45:54;8.06;89.65
58102;HTU21D;52034;51.926;6.320;2024-02-14T00:46:58;8.01;90.28
58102;HTU21D;52034;51.926;6.320;2024-02-14T00:48:01;8.02;90.48
58102;HTU21D;52034;51.926;6.320;2024-02-14T00:49:03;8.06;90.02
58102;HTU21D;52034;51.926;6.320;2024-02-14T00:50:05;8.08;89.59
58102;HTU21D;52034;51.926;6.320;2024-02-14T00:51:06;8.07;90.07
58102;HTU21D;52034;51.926;6.320;2024-02-14T00:52:08;8.07;90.15
58102;HTU21D;52034;51.926;6.320;2024-02-14T00:53:10;8.07;89.95
58102;HTU21D;52034;51.926;6.320;2024-02-14T00:54:12;8.11;89.68
58102;HTU21D;52034;51.926;6.320;2024-02-14T00:55:13;8.13;89.93
58102;HTU21D;52034;51.926;6.320;2024-02-14T00:56:15;8.06;89.70
58102;HTU21D;52034;51.926;6.320;2024-02-14T00:57:16;8.13;89.25
58102;HTU21D;52034;51.926;6.320;2024-02-14T00:58:19;8.14;89.52
58102;HTU21D;52034;51.926;6.320;2024-02-14T00:59:21;8.13;90.01
58102;HTU21D;52034;51.926;6.320;2024-02-14T01:00:22;8.14;89.56
58102;HTU21D;52034;51.926;6.320;2024-02-14T01:01:24;8.15;89.49
58102;HTU21D;52034;51.926;6.320;2024-02-14T01:02:25;8.16;89.36
58102;HTU21D;52034;51.926;6.320;2024-02-14T01:03:30;8.13;89.86
58102;HTU21D;52034;51.926;6.320;2024-02-14T01:04:31;8.09;90.19
58102;HTU21D;52034;51.926;6.320;2024-02-14T01:05:33;8.13;89.89
58102;HTU21D;52034;51.926;6.320;2024-02-14T01:06:35;8.12;90.02
58102;HTU21D;52034;51.926;6.320;2024-02-14T01:07:36;8.14;89.60
58102;HTU21D;52034;51.926;6.320;2024-02-14T01:08:38;8.16;89.79
58102;HTU21D;52034;51.926;6.320;2024-02-14T01:09:40;8.12;90.42
58102;HTU21D;52034;51.926;6.320;2024-02-14T01:10:41;8.13;89.97
58102;HTU21D;52034;51.926;6.320;2024-02-14T01:11:43;8.15;89.99
58102;HTU21D;52034;51.926;6.320;2024-02-14T01:12:44;8.12;90.46
58102;HTU21D;52034;51.926;6.320;2024-02-14T01:13:46;8.14;90.06
58102;HTU21D;52034;51.926;6.320;2024-02-14T01:14:48;8.14;90.39
58102;HTU21D;52034;51.926;6.320;2024-02-14T01:15:50;8.15;90.38
58102;HTU21D;52034;51.926;6.320;2024-02-14T01:16:51;8.17;89.91
58102;HTU21D;52034;51.926;6.320;2024-02-14T01:17:55;8.18;89.98
58102;HTU21D;52034;51.926;6.320;2024-02-14T01:18:57;8.19;89.92
58102;HTU21D;52034;51.926;6.320;2024-02-14T01:19:58;8.20;90.26
58102;HTU21D;52034;51.926;6.320;2024-02-14T01:21:00;8.17;90.24
58102;HTU21D;52034;51.926;6.320;2024-02-14T01:22:03;8.17;89.83
58102;HTU21D;52034;51.926;6.320;2024-02-14T01:23:04;8.19;89.95
58102;HTU21D;52034;51.926;6.320;2024-02-14T01:24:06;8.22;89.31
58102;HTU21D;52034;51.926;6.320;2024-02-14T01:25:10;8.26;90.28
58102;HTU21D;52034;51.926;6.320;2024-02-14T01:26:12;8.26;89.74
58102;HTU21D;52034;51.926;6.320;2024-02-14T01:27:13;8.27;90.28
58102;HTU21D;52034;51.926;6.320;2024-02-14T01:28:15;8.24;89.74
58102;HTU21D;52034;51.926;6.320;2024-02-14T01:29:18;8.24;90.47
58102;HTU21D;52034;51.926;6.320;2024-02-14T01:30:20;8.24;90.23
58102;HTU21D;52034;51.926;6.320;2024-02-14T01:31:22;8.26;90.20
58102;HTU21D;52034;51.926;6.320;2024-02-14T01:32:24;8.29;89.79
58102;HTU21D;52034;51.926;6.320;2024-02-14T01:33:26;8.32;89.71
58102;HTU21D;52034;51.926;6.320;2024-02-14T01:34:27;8.35;89.39
58102;HTU21D;52034;51.926;6.320;2024-02-14T01:35:32;8.34;90.37
58102;HTU21D;52034;51.926;6.320;2024-02-14T01:36:34;8.33;89.73
58102;HTU21D;52034;51.926;6.320;2024-02-14T01:37:36;8.33;89.66
58102;HTU21D;52034;51.926;6.320;2024-02-14T01:38:37;8.33;89.47
58102;HTU21D;52034;51.926;6.320;2024-02-14T01:39:39;8.37;89.15
58102;HTU21D;52034;51.926;6.320;2024-02-14T01:40:43;8.39;89.56
58102;HTU21D;52034;51.926;6.320;2024-02-14T01:41:46;8.37;89.85
58102;HTU21D;52034;51.926;6.320;2024-02-14T01:42:50;8.41;89.40
58102;HTU21D;52034;51.926;6.320;2024-02-14T01:43:52;8.41;89.63
58102;HTU21D;52034;51.926;6.320;2024-02-14T01:44:54;8.41;89.50
58102;HTU21D;52034;51.926;6.320;2024-02-14T01:46:06;8.39;89.75
58102;HTU21D;52034;51.926;6.320;2024-02-14T01:47:08;8.39;89.60
58102;HTU21D;52034;51.926;6.320;2024-02-14T01:48:11;8.42;89.46
58102;HTU21D;52034;51.926;6.320;2024-02-14T01:49:13;8.45;89.63
58102;HTU21D;52034;51.926;6.320;2024-02-14T01:50:15;8.44;89.29
58102;HTU21D;52034;51.926;6.320;2024-02-14T01:51:17;8.43;89.37
58102;HTU21D;52034;51.926;6.320;2024-02-14T01:52:21;8.45;89.54
58102;HTU21D;52034;51.926;6.320;2024-02-14T01:53:23;8.46;89.38
58102;HTU21D;52034;51.926;6.320;2024-02-14T01:54:26;8.43;89.91
58102;HTU21D;52034;51.926;6.320;2024-02-14T01:55:28;8.39;90.35
58102;HTU21D;52034;51.926;6.320;2024-02-14T01:56:30;8.41;90.10
58102;HTU21D;52034;51.926;6.320;2024-02-14T01:57:32;8.39;90.02
58102;HTU21D;52034;51.926;6.320;2024-02-14T01:58:34;8.42;90.07
58102;HTU21D;52034;51.926;6.320;2024-02-14T01:59:36;8.43;90.06
58102;HTU21D;52034;51.926;6.320;2024-02-14T02:00:38;8.45;90.15
58102;HTU21D;52034;51.926;6.320;2024-02-14T02:01:45;8.44;90.15
58102;HTU21D;52034;51.926;6.320;2024-02-14T02:02:48;8.48;89.52
58102;HTU21D;52034;51.926;6.320;2024-02-14T02:03:53;8.51;89.76
58102;HTU21D;52034;51.926;6.320;2024-02-14T02:04:55;8.49;89.43
58102;HTU21D;52034;51.926;6.320;2024-02-14T02:05:57;8.52;89.99
58102;HTU21D;52034;51.926;6.320;2024-02-14T02:06:59;8.52;89.15
58102;HTU21D;52034;51.926;6.320;2024-02-14T02:08:01;8.51;89.47
58102;HTU21D;52034;51.926;6.320;2024-02-14T02:09:03;8.53;89.53
58102;HTU21D;52034;51.926;6.320;2024-02-14T02:10:05;8.53;89.58
58102;HTU21D;52034;51.926;6.320;2024-02-14T02:11:07;8.55;89.44
58102;HTU21D;52034;51.926;6.320;2024-02-14T02:12:08;8.57;89.44
58102;HTU21D;52034;51.926;6.320;2024-02-14T02:13:10;8.58;89.95
58102;HTU21D;52034;51.926;6.320;2024-02-14T02:14:12;8.59;89.39
58102;HTU21D;52034;51.926;6.320;2024-02-14T02:15:14;8.59;90.00
58102;HTU21D;52034;51.926;6.320;2024-02-14T02:16:16;8.59;89.64
58102;HTU21D;52034;51.926;6.320;2024-02-14T02:17:17;8.58;89.51
58102;HTU21D;52034;51.926;6.320;2024-02-14T02:18:19;8.58;89.70
58102;HTU21D;52034;51.926;6.320;2024-02-14T02:19:21;8.58;89.57
58102;HTU21D;52034;51.926;6.320;2024-02-14T02:20:22;8.61;89.60
58102;HTU21D;52034;51.926;6.320;2024-02-14T02:21:24;8.64;89.99
58102;HTU21D;52034;51.926;6.320;2024-02-14T02:22:26;8.63;89.54
58102;HTU21D;52034;51.926;6.320;2024-02-14T02:23:30;8.62;89.50
58102;HTU21D;52034;51.926;6.320;2024-02-14T02:24:32;8.61;89.35
58102;HTU21D;52034;51.926;6.320;2024-02-14T02:25:34;8.63;89.94
58102;HTU21D;52034;51.926;6.320;2024-02-14T02:26:35;8.64;89.73
58102;HTU21D;52034;51.926;6.320;2024-02-14T02:27:37;8.62;89.87
58102;HTU21D;52034;51.926;6.320;2024-02-14T02:28:39;8.64;89.73
58102;HTU21D;52034;51.926;6.320;2024-02-14T02:29:41;8.65;89.51
58102;HTU21D;52034;51.926;6.320;2024-02-14T02:30:42;8.63;89.36
58102;HTU21D;52034;51.926;6.320;2024-02-14T02:31:44;8.65;89.48
58102;HTU21D;52034;51.926;6.320;2024-02-14T02:32:45;8.62;89.92
58102;HTU21D;52034;51.926;6.320;2024-02-14T02:33:47;8.66;89.31
58102;HTU21D;52034;51.926;6.320;2024-02-14T02:34:49;8.68;89.99
58102;HTU21D;52034;51.926;6.320;2024-02-14T02:35:51;8.68;89.23
58102;HTU21D;52034;51.926;6.320;2024-02-14T02:36:52;8.71;89.38
58102;HTU21D;52034;51.926;6.320;2024-02-14T02:37:54;8.71;89.89
58102;HTU21D;52034;51.926;6.320;2024-02-14T02:38:56;8.68;89.59
58102;HTU21D;52034;51.926;6.320;2024-02-14T02:39:58;8.70;89.63
58102;HTU21D;52034;51.926;6.320;2024-02-14T02:40:59;8.73;89.51
58102;HTU21D;52034;51.926;6.320;2024-02-14T02:42:02;8.78;89.43
58102;HTU21D;52034;51.926;6.320;2024-02-14T02:43:04;8.77;89.42
58102;HTU21D;52034;51.926;6.320;2024-02-14T02:44:07;8.76;88.80
58102;HTU21D;52034;51.926;6.320;2024-02-14T02:45:09;8.78;89.08
58102;HTU21D;52034;51.926;6.320;2024-02-14T02:46:10;8.75;89.18
58102;HTU21D;52034;51.926;6.320;2024-02-14T02:47:12;8.76;88.98
58102;HTU21D;52034;51.926;6.320;2024-02-14T02:48:14;8.76;89.59
58102;HTU21D;52034;51.926;6.320;2024-02-14T02:49:15;8.75;89.04
58102;HTU21D;52034;51.926;6.320;2024-02-14T02:50:17;8.78;89.44
58102;HTU21D;52034;51.926;6.320;2024-02-14T02:51:19;8.77;89.66
58102;HTU21D;52034;51.926;6.320;2024-02-14T02:52:20;8.75;89.99
58102;HTU21D;52034;51.926;6.320;2024-02-14T02:53:22;8.77;89.71
58102;HTU21D;52034;51.926;6.320;2024-02-14T02:54:25;8.73;89.84
58102;HTU21D;52034;51.926;6.320;2024-02-14T02:55:27;8.78;89.31
58102;HTU21D;52034;51.926;6.320;2024-02-14T02:56:28;8.77;90.12
58102;HTU21D;52034;51.926;6.320;2024-02-14T02:57:31;8.73;89.99
58102;HTU21D;52034;51.926;6.320;2024-02-14T02:58:38;8.77;89.62
58102;HTU21D;52034;51.926;6.320;2024-02-14T02:59:40;8.77;90.05
58102;HTU21D;52034;51.926;6.320;2024-02-14T03:00:44;8.76;90.25
58102;HTU21D;52034;51.926;6.320;2024-02-14T03:01:46;8.77;89.22
58102;HTU21D;52034;51.926;6.320;2024-02-14T03:02:47;8.78;89.90
58102;HTU21D;52034;51.926;6.320;2024-02-14T03:03:50;8.73;90.57
58102;HTU21D;52034;51.926;6.320;2024-02-14T03:04:52;8.75;89.89
58102;HTU21D;52034;51.926;6.320;2024-02-14T03:05:54;8.75;90.24
58102;HTU21D;52034;51.926;6.320;2024-02-14T03:06:58;8.75;91.17
58102;HTU21D;52034;51.926;6.320;2024-02-14T03:08:00;8.73;90.34
58102;HTU21D;52034;51.926;6.320;2024-02-14T03:09:02;8.73;90.55
58102;HTU21D;52034;51.926;6.320;2024-02-14T03:10:03;8.74;90.98
58102;HTU21D;52034;51.926;6.320;2024-02-14T03:11:05;8.74;90.71
58102;HTU21D;52034;51.926;6.320;2024-02-14T03:12:07;8.74;90.73
58102;HTU21D;52034;51.926;6.320;2024-02-14T03:13:11;8.75;90.76
58102;HTU21D;52034;51.926;6.320;2024-02-14T03:14:15;8.76;90.61
58102;HTU21D;52034;51.926;6.320;2024-02-14T03:15:17;8.78;90.79
58102;HTU21D;52034;51.926;6.320;2024-02-14T03:16:19;8.78;91.11
58102;HTU21D;52034;51.926;6.320;2024-02-14T03:17:21;8.76;91.11
58102;HTU21D;52034;51.926;6.320;2024-02-14T03:18:23;8.76;91.33
58102;HTU21D;52034;51.926;6.320;2024-02-14T03:19:25;8.77;90.98
58102;HTU21D;52034;51.926;6.320;2024-02-14T03:20:28;8.75;90.88
58102;HTU21D;52034;51.926;6.320;2024-02-14T03:21:31;8.74;91.07
58102;HTU21D;52034;51.926;6.320;2024-02-14T03:22:36;8.76;91.57
58102;HTU21D;52034;51.926;6.320;2024-02-14T03:23:38;8.77;91.51
58102;HTU21D;52034;51.926;6.320;2024-02-14T03:24:41;8.77;90.99
58102;HTU21D;52034;51.926;6.320;2024-02-14T03:25:45;8.78;91.24
58102;HTU21D;52034;51.926;6.320;2024-02-14T03:26:46;8.80;90.78
58102;HTU21D;52034;51.926;6.320;2024-02-14T03:27:50;8.80;89.96
58102;HTU21D;52034;51.926;6.320;2024-02-14T03:28:54;8.80;91.60
58102;HTU21D;52034;51.926;6.320;2024-02-14T03:29:56;8.80;90.86
58102;HTU21D;52034;51.926;6.320;2024-02-14T03:31:00;8.79;91.50
58102;HTU21D;52034;51.926;6.320;2024-02-14T03:32:01;8.80;91.67
58102;HTU21D;52034;51.926;6.320;2024-02-14T03:33:06;8.80;91.84
58102;HTU21D;52034;51.926;6.320;2024-02-14T03:34:09;8.81;91.21
58102;HTU21D;52034;51.926;6.320;2024-02-14T03:35:12;8.81;91.35
58102;HTU21D;52034;51.926;6.320;2024-02-14T03:36:17;8.81;91.55
58102;HTU21D;52034;51.926;6.320;2024-02-14T03:37:18;8.85;90.99
58102;HTU21D;52034;51.926;6.320;2024-02-14T03:38:26;8.82;91.43
58102;HTU21D;52034;51.926;6.320;2024-02-14T03:39:28;8.82;91.79
58102;HTU21D;52034;51.926;6.320;2024-02-14T03:40:30;8.85;90.95
58102;HTU21D;52034;51.926;6.320;2024-02-14T03:41:32;8.85;91.85
58102;HTU21D;52034;51.926;6.320;2024-02-14T03:42:34;8.83;91.99
58102;HTU21D;52034;51.926;6.320;2024-02-14T03:43:35;8.81;91.86
58102;HTU21D;52034;51.926;6.320;2024-02-14T03:44:37;8.82;91.62
58102;HTU21D;52034;51.926;6.320;2024-02-14T03:45:39;8.81;91.82
58102;HTU21D;52034;51.926;6.320;2024-02-14T03:46:41;8.81;91.87
58102;HTU21D;52034;51.926;6.320;2024-02-14T03:47:42;8.83;92.12
58102;HTU21D;52034;51.926;6.320;2024-02-14T03:48:44;8.85;92.16
58102;HTU21D;52034;51.926;6.320;2024-02-14T03:49:46;8.85;91.97
58102;HTU21D;52034;51.926;6.320;2024-02-14T03:50:47;8.83;92.09
58102;HTU21D;52034;51.926;6.320;2024-02-14T03:51:49;8.87;92.11
58102;HTU21D;52034;51.926;6.320;2024-02-14T03:52:54;8.86;91.86
58102;HTU21D;52034;51.926;6.320;2024-02-14T03:53:56;8.90;91.68
58102;HTU21D;52034;51.926;6.320;2024-02-14T03:54:58;8.90;91.81
58102;HTU21D;52034;51.926;6.320;2024-02-14T03:56:00;8.87;91.78
58102;HTU21D;52034;51.926;6.320;2024-02-14T03:57:02;8.88;91.43
58102;HTU21D;52034;51.926;6.320;2024-02-14T03:58:05;8.92;91.88
58102;HTU21D;52034;51.926;6.320;2024-02-14T03:59:07;8.92;91.48
58102;HTU21D;52034;51.926;6.320;2024-02-14T04:00:09;8.95;91.62
58102;HTU21D;52034;51.926;6.320;2024-02-14T04:01:13;8.95;90.66
58102;HTU21D;52034;51.926;6.320;2024-02-14T04:02:16;8.94;91.32
58102;HTU21D;52034;51.926;6.320;2024-02-14T04:03:17;8.96;91.54
58102;HTU21D;52034;51.926;6.320;2024-02-14T04:04:19;8.96;91.23
58102;HTU21D;52034;51.926;6.320;2024-02-14T04:05:21;8.97;91.02
58102;HTU21D;52034;51.926;6.320;2024-02-14T04:06:24;8.97;91.40
58102;HTU21D;52034;51.926;6.320;2024-02-14T04:07:28;8.98;91.47
58102;HTU21D;52034;51.926;6.320;2024-02-14T04:08:31;8.96;91.50
58102;HTU21D;52034;51.926;6.320;2024-02-14T04:09:33;8.97;91.58
58102;HTU21D;52034;51.926;6.320;2024-02-14T04:10:35;8.98;91.82
58102;HTU21D;52034;51.926;6.320;2024-02-14T04:11:36;9.01;91.92
58102;HTU21D;52034;51.926;6.320;2024-02-14T04:12:38;9.00;91.40
58102;HTU21D;52034;51.926;6.320;2024-02-14T04:13:40;9.01;91.39
58102;HTU21D;52034;51.926;6.320;2024-02-14T04:14:42;9.04;91.50
58102;HTU21D;52034;51.926;6.320;2024-02-14T04:15:43;9.04;91.40
58102;HTU21D;52034;51.926;6.320;2024-02-14T04:16:45;9.08;91.33
58102;HTU21D;52034;51.926;6.320;2024-02-14T04:17:47;9.06;90.97
58102;HTU21D;52034;51.926;6.320;2024-02-14T04:18:49;9.10;91.96
58102;HTU21D;52034;51.926;6.320;2024-02-14T04:19:51;9.10;92.09
58102;HTU21D;52034;51.926;6.320;2024-02-14T04:20:52;9.08;91.69
58102;HTU21D;52034;51.926;6.320;2024-02-14T04:21:54;9.11;90.72
58102;HTU21D;52034;51.926;6.320;2024-02-14T04:22:55;9.14;91.54
58102;HTU21D;52034;51.926;6.320;2024-02-14T04:23:57;9.10;90.94
58102;HTU21D;52034;51.926;6.320;2024-02-14T04:24:59;9.14;91.95
58102;HTU21D;52034;51.926;6.320;2024-02-14T04:26:01;9.11;91.72
58102;HTU21D;52034;51.926;6.320;2024-02-14T04:27:02;9.09;91.80
58102;HTU21D;52034;51.926;6.320;2024-02-14T04:28:05;9.09;92.20
58102;HTU21D;52034;51.926;6.320;2024-02-14T04:29:08;9.07;92.63
58102;HTU21D;52034;51.926;6.320;2024-02-14T04:30:09;9.06;92.43
58102;HTU21D;52034;51.926;6.320;2024-02-14T04:31:12;9.09;92.30
58102;HTU21D;52034;51.926;6.320;2024-02-14T04:32:13;9.11;91.82
58102;HTU21D;52034;51.926;6.320;2024-02-14T04:33:15;9.11;91.95
58102;HTU21D;52034;51.926;6.320;2024-02-14T04:34:17;9.12;91.70
58102;HTU21D;52034;51.926;6.320;2024-02-14T04:35:21;9.17;91.45
58102;HTU21D;52034;51.926;6.320;2024-02-14T04:36:23;9.18;91.90
58102;HTU21D;52034;51.926;6.320;2024-02-14T04:37:24;9.16;91.45
58102;HTU21D;52034;51.926;6.320;2024-02-14T04:38:26;9.18;91.53
58102;HTU21D;52034;51.926;6.320;2024-02-14T04:39:30;9.19;91.33
58102;HTU21D;52034;51.926;6.320;2024-02-14T04:40:31;9.18;91.33
58102;HTU21D;52034;51.926;6.320;2024-02-14T04:41:33;9.21;91.26
58102;HTU21D;52034;51.926;6.320;2024-02-14T04:42:50;9.24;91.02
58102;HTU21D;52034;51.926;6.320;2024-02-14T04:43:52;9.25;91.18
58102;HTU21D;52034;51.926;6.320;2024-02-14T04:44:54;9.26;90.61
58102;HTU21D;52034;51.926;6.320;2024-02-14T04:45:55;9.26;91.02
58102;HTU21D;52034;51.926;6.320;2024-02-14T04:46:57;9.27;91.51
58102;HTU21D;52034;51.926;6.320;2024-02-14T04:48:02;9.24;91.34
58102;HTU21D;52034;51.926;6.320;2024-02-14T04:49:05;9.26;90.76
58102;HTU21D;52034;51.926;6.320;2024-02-14T04:50:06;9.24;91.00
58102;HTU21D;52034;51.926;6.320;2024-02-14T04:51:08;9.23;91.15
58102;HTU21D;52034;51.926;6.320;2024-02-14T04:52:10;9.24;91.40
58102;HTU21D;52034;51.926;6.320;2024-02-14T04:53:11;9.23;91.65
58102;HTU21D;52034;51.926;6.320;2024-02-14T04:54:13;9.23;92.05
58102;HTU21D;52034;51.926;6.320;2024-02-14T04:55:17;9.22;91.25
58102;HTU21D;52034;51.926;6.320;2024-02-14T04:56:20;9.21;92.28
58102;HTU21D;52034;51.926;6.320;2024-02-14T04:57:21;9.22;91.98
58102;HTU21D;52034;51.926;6.320;2024-02-14T04:58:23;9.20;91.99
58102;HTU21D;52034;51.926;6.320;2024-02-14T04:59:25;9.20;92.09
58102;HTU21D;52034;51.926;6.320;2024-02-14T05:00:27;9.23;92.26
58102;HTU21D;52034;51.926;6.320;2024-02-14T05:01:29;9.23;92.34
58102;HTU21D;52034;51.926;6.320;2024-02-14T05:02:30;9.22;92.42
58102;HTU21D;52034;51.926;6.320;2024-02-14T05:03:32;9.25;91.83
58102;HTU21D;52034;51.926;6.320;2024-02-14T05:04:34;9.24;92.00
58102;HTU21D;52034;51.926;6.320;2024-02-14T05:05:39;9.22;91.66
58102;HTU21D;52034;51.926;6.320;2024-02-14T05:06:40;9.25;92.47
58102;HTU21D;52034;51.926;6.320;2024-02-14T05:07:43;9.25;92.89
58102;HTU21D;52034;51.926;6.320;2024-02-14T05:08:45;9.23;92.77
58102;HTU21D;52034;51.926;6.320;2024-02-14T05:09:46;9.24;92.50
58102;HTU21D;52034;51.926;6.320;2024-02-14T05:10:51;9.24;92.01
58102;HTU21D;52034;51.926;6.320;2024-02-14T05:11:53;9.26;92.20
58102;HTU21D;52034;51.926;6.320;2024-02-14T05:12:55;9.25;92.45
58102;HTU21D;52034;51.926;6.320;2024-02-14T05:13:56;9.30;92.52
58102;HTU21D;52034;51.926;6.320;2024-02-14T05:14:58;9.26;92.28
58102;HTU21D;52034;51.926;6.320;2024-02-14T05:16:03;9.27;92.31
58102;HTU21D;52034;51.926;6.320;2024-02-14T05:17:05;9.27;92.79
58102;HTU21D;52034;51.926;6.320;2024-02-14T05:18:06;9.29;92.32
58102;HTU21D;52034;51.926;6.320;2024-02-14T05:19:08;9.31;92.80
58102;HTU21D;52034;51.926;6.320;2024-02-14T05:20:11;9.30;92.14
58102;HTU21D;52034;51.926;6.320;2024-02-14T05:21:13;9.30;92.15
58102;HTU21D;52034;51.926;6.320;2024-02-14T05:22:15;9.32;92.78
58102;HTU21D;52034;51.926;6.320;2024-02-14T05:23:16;9.31;91.60
58102;HTU21D;52034;51.926;6.320;2024-02-14T05:24:19;9.33;92.20
58102;HTU21D;52034;51.926;6.320;2024-02-14T05:25:21;9.31;92.85
58102;HTU21D;52034;51.926;6.320;2024-02-14T05:26:22;9.33;92.72
58102;HTU21D;52034;51.926;6.320;2024-02-14T05:27:24;9.33;92.72
58102;HTU21D;52034;51.926;6.320;2024-02-14T05:28:25;9.35;92.70
58102;HTU21D;52034;51.926;6.320;2024-02-14T05:29:27;9.35;92.02
58102;HTU21D;52034;51.926;6.320;2024-02-14T05:30:29;9.36;92.11
58102;HTU21D;52034;51.926;6.320;2024-02-14T05:31:42;9.36;92.05
58102;HTU21D;52034;51.926;6.320;2024-02-14T05:32:44;9.36;91.80
58102;HTU21D;52034;51.926;6.320;2024-02-14T05:33:45;9.39;92.25
58102;HTU21D;52034;51.926;6.320;2024-02-14T05:34:47;9.36;92.54
58102;HTU21D;52034;51.926;6.320;2024-02-14T05:35:49;9.38;92.29
58102;HTU21D;52034;51.926;6.320;2024-02-14T05:36:51;9.38;92.40
58102;HTU21D;52034;51.926;6.320;2024-02-14T05:37:53;9.40;92.18
58102;HTU21D;52034;51.926;6.320;2024-02-14T05:38:55;9.41;92.24
58102;HTU21D;52034;51.926;6.320;2024-02-14T05:39:57;9.40;91.83
58102;HTU21D;52034;51.926;6.320;2024-02-14T05:40:59;9.40;92.56
58102;HTU21D;52034;51.926;6.320;2024-02-14T05:42:01;9.37;92.40
58102;HTU21D;52034;51.926;6.320;2024-02-14T05:43:04;9.39;92.50
58102;HTU21D;52034;51.926;6.320;2024-02-14T05:44:05;9.40;92.18
58102;HTU21D;52034;51.926;6.320;2024-02-14T05:45:07;9.39;92.13
58102;HTU21D;52034;51.926;6.320;2024-02-14T05:46:11;9.39;92.27
58102;HTU21D;52034;51.926;6.320;2024-02-14T05:47:13;9.40;92.13
58102;HTU21D;52034;51.926;6.320;2024-02-14T05:48:14;9.41;92.27
58102;HTU21D;52034;51.926;6.320;2024-02-14T05:49:16;9.42;92.08
58102;HTU21D;52034;51.926;6.320;2024-02-14T05:50:18;9.40;91.82
58102;HTU21D;52034;51.926;6.320;2024-02-14T05:51:20;9.40;92.75
58102;HTU21D;52034;51.926;6.320;2024-02-14T05:52:22;9.41;92.18
58102;HTU21D;52034;51.926;6.320;2024-02-14T05:53:23;9.44;91.82
58102;HTU21D;52034;51.926;6.320;2024-02-14T05:54:25;9.42;92.49
58102;HTU21D;52034;51.926;6.320;2024-02-14T05:55:27;9.46;93.02
58102;HTU21D;52034;51.926;6.320;2024-02-14T05:56:28;9.42;92.51
58102;HTU21D;52034;51.926;6.320;2024-02-14T05:57:30;9.42;92.08
58102;HTU21D;52034;51.926;6.320;2024-02-14T05:58:31;9.45;92.18
58102;HTU21D;52034;51.926;6.320;2024-02-14T05:59:33;9.41;92.40
58102;HTU21D;52034;51.926;6.320;2024-02-14T06:00:35;9.44;92.71
58102;HTU21D;52034;51.926;6.320;2024-02-14T06:01:38;9.42;91.71
58102;HTU21D;52034;51.926;6.320;2024-02-14T06:02:39;9.45;92.53
58102;HTU21D;52034;51.926;6.320;2024-02-14T06:03:41;9.44;92.42
58102;HTU21D;52034;51.926;6.320;2024-02-14T06:04:44;9.45;92.09
58102;HTU21D;52034;51.926;6.320;2024-02-14T06:05:46;9.41;92.66
58102;HTU21D;52034;51.926;6.320;2024-02-14T06:06:47;9.44;93.01
58102;HTU21D;52034;51.926;6.320;2024-02-14T06:07:49;9.41;93.53
58102;HTU21D;52034;51.926;6.320;2024-02-14T06:08:51;9.40;93.19
58102;HTU21D;52034;51.926;6.320;2024-02-14T06:09:53;9.44;92.86
58102;HTU21D;52034;51.926;6.320;2024-02-14T06:10:55;9.44;92.73
58102;HTU21D;52034;51.926;6.320;2024-02-14T06:11:56;9.42;92.51
58102;HTU21D;52034;51.926;6.320;2024-02-14T06:12:58;9.45;93.08
58102;HTU21D;52034;51.926;6.320;2024-02-14T06:14:00;9.47;92.56
58102;HTU21D;52034;51.926;6.320;2024-02-14T06:15:01;9.48;92.86
58102;HTU21D;52034;51.926;6.320;2024-02-14T06:16:03;9.46;92.64
58102;HTU21D;52034;51.926;6.320;2024-02-14T06:17:05;9.46;93.09
58102;HTU21D;52034;51.926;6.320;2024-02-14T06:18:07;9.46;92.79
58102;HTU21D;52034;51.926;6.320;2024-02-14T06:19:08;9.48;92.40
58102;HTU21D;52034;51.926;6.320;2024-02-14T06:20:11;9.48;92.11
58102;HTU21D;52034;51.926;6.320;2024-02-14T06:21:14;9.50;92.05
58102;HTU21D;52034;51.926;6.320;2024-02-14T06:22:15;9.50;92.01
58102;HTU21D;52034;51.926;6.320;2024-02-14T06:23:17;9.52;91.85
58102;HTU21D;52034;51.926;6.320;2024-02-14T06:24:19;9.52;91.99
58102;HTU21D;52034;51.926;6.320;2024-02-14T06:25:21;9.54;92.20
58102;HTU21D;52034;51.926;6.320;2024-02-14T06:26:22;9.53;91.79
58102;HTU21D;52034;51.926;6.320;2024-02-14T06:27:24;9.54;92.34
58102;HTU21D;52034;51.926;6.320;2024-02-14T06:28:25;9.51;92.54
58102;HTU21D;52034;51.926;6.320;2024-02-14T06:29:27;9.49;92.14
58102;HTU21D;52034;51.926;6.320;2024-02-14T06:30:28;9.54;92.21
58102;HTU21D;52034;51.926;6.320;2024-02-14T06:31:33;9.52;92.79
58102;HTU21D;52034;51.926;6.320;2024-02-14T06:32:35;9.53;92.94